createdAt,value
2023-02-19T00:02:39.930Z,100707.22
2023-02-19T00:05:43.807Z,100708.37
2023-02-19T00:08:47.101Z,100716.03
2023-02-19T00:11:50.402Z,100698.34
2023-02-19T00:14:55.483Z,100706.16
2023-02-19T00:17:59.052Z,100705.97
2023-02-19T00:21:02.640Z,100708.34
2023-02-19T00:24:09.285Z,100706.75
2023-02-19T00:27:12.289Z,100698.06
2023-02-19T00:30:17.047Z,100701.84
2023-02-19T00:33:19.759Z,100699.19
2023-02-19T00:36:25.501Z,100699.22
2023-02-19T00:39:28.208Z,100697.41
2023-02-19T00:42:31.335Z,100691.41
2023-02-19T00:45:35.744Z,100688.84
2023-02-19T00:48:39.866Z,100687.94
2023-02-19T00:51:42.759Z,100691.41
2023-02-19T00:54:46.084Z,100703.62
2023-02-19T00:57:49.028Z,100701.09
2023-02-19T01:00:51.962Z,100700.94
2023-02-19T01:03:56.390Z,100705.28
2023-02-19T01:06:59.330Z,100706.94
2023-02-19T01:10:01.868Z,100706.78
2023-02-19T01:13:04.888Z,100703.25
2023-02-19T01:16:09.723Z,100699.59
2023-02-19T01:19:12.902Z,100693.38
2023-02-19T01:22:15.612Z,100691.69
2023-02-19T01:25:18.665Z,100697.66
2023-02-19T01:28:24.253Z,100684.53
2023-02-19T01:31:28.776Z,100679.09
2023-02-19T01:34:34.237Z,100681.72
2023-02-19T01:37:37.549Z,100683.38
2023-02-19T01:40:40.403Z,100676.56
2023-02-19T01:44:27.724Z,100681.88
2023-02-19T01:47:30.613Z,100675.94
2023-02-19T01:50:38.778Z,100681.22
2023-02-19T01:53:48.159Z,100677.75
2023-02-19T01:56:52.466Z,100681.37
2023-02-19T02:00:00.258Z,100680.06
2023-02-19T02:03:05.438Z,100687.78
2023-02-19T02:06:23.494Z,100689.69
2023-02-19T02:09:48.231Z,100683.63
2023-02-19T02:12:56.285Z,100675.94
2023-02-19T02:16:17.534Z,100675.22
2023-02-19T02:19:45.484Z,100666.44
2023-02-19T02:23:21.383Z,100657.78
2023-02-19T02:26:27.108Z,100642.31
2023-02-19T02:29:48.467Z,100637.66
2023-02-19T02:33:02.960Z,100651.50
2023-02-19T02:36:17.370Z,100650.50
2023-02-19T02:39:25.459Z,100644.25
2023-02-19T02:42:29.642Z,100650.41
2023-02-19T02:45:36.856Z,100652.91
2023-02-19T02:48:55.476Z,100638.00
2023-02-19T02:52:19.863Z,100644.25
2023-02-19T02:55:22.678Z,100638.03
2023-02-19T02:58:28.119Z,100643.22
2023-02-19T03:02:00.658Z,100642.22
2023-02-19T03:05:36.452Z,100652.56
2023-02-19T03:08:50.226Z,100648.94
2023-02-19T03:12:14.607Z,100655.72
2023-02-19T03:15:38.420Z,100665.06
2023-02-19T03:19:04.870Z,100665.84
2023-02-19T03:22:20.044Z,100671.13
2023-02-19T03:25:50.051Z,100664.19
2023-02-19T03:29:14.714Z,100658.66
2023-02-19T03:32:30.748Z,100667.66
2023-02-19T03:35:41.878Z,100675.00
2023-02-19T03:38:54.911Z,100678.09
2023-02-19T03:42:08.379Z,100679.41
2023-02-19T03:45:27.331Z,100673.59
2023-02-19T03:48:42.956Z,100656.66
2023-02-19T03:51:55.458Z,100670.50
2023-02-19T03:55:10.432Z,100660.78
2023-02-19T03:58:31.173Z,100657.00
2023-02-19T04:01:41.594Z,100657.06
2023-02-19T04:04:52.105Z,100660.37
2023-02-19T04:08:00.557Z,100654.88
2023-02-19T04:11:08.571Z,100664.28
2023-02-19T04:14:20.278Z,100675.16
2023-02-19T04:17:39.298Z,100679.47
2023-02-19T04:20:46.294Z,100673.31
2023-02-19T04:23:51.320Z,100663.34
2023-02-19T04:26:55.977Z,100672.00
2023-02-19T04:30:01.675Z,100662.31
2023-02-19T04:33:05.146Z,100670.22
2023-02-19T04:36:10.801Z,100668.97
2023-02-19T04:39:13.641Z,100686.38
2023-02-19T04:42:16.664Z,100681.94
2023-02-19T04:45:19.563Z,100664.28
2023-02-19T04:48:22.504Z,100672.03
2023-02-19T04:51:25.320Z,100667.41
2023-02-19T04:54:28.638Z,100666.25
2023-02-19T04:57:32.411Z,100666.81
2023-02-19T05:00:36.269Z,100675.38
2023-02-19T05:03:39.490Z,100689.16
2023-02-19T05:06:42.326Z,100684.84
2023-02-19T05:09:44.734Z,100698.88
2023-02-19T05:12:47.541Z,100695.44
2023-02-19T05:16:00.077Z,100698.19
2023-02-19T05:19:04.469Z,100691.50
2023-02-19T05:22:07.208Z,100694.94
2023-02-19T05:25:10.022Z,100679.34
2023-02-19T05:28:17.063Z,100676.66
2023-02-19T05:31:22.338Z,100677.56
2023-02-19T05:34:25.497Z,100672.16
2023-02-19T05:37:28.636Z,100674.94
2023-02-19T05:40:31.634Z,100653.94
2023-02-19T05:43:35.041Z,100658.25
2023-02-19T05:46:38.274Z,100659.78
2023-02-19T05:49:41.694Z,100673.47
2023-02-19T05:52:44.802Z,100672.25
2023-02-19T05:55:48.088Z,100678.97
2023-02-19T05:58:51.186Z,100677.81
2023-02-19T06:01:55.824Z,100680.19
2023-02-19T06:05:01.506Z,100682.53
2023-02-19T06:08:09.891Z,100690.63
2023-02-19T06:11:14.570Z,100693.84
2023-02-19T06:14:17.201Z,100698.56
2023-02-19T06:17:20.223Z,100693.97
2023-02-19T06:20:29.333Z,100684.13
2023-02-19T06:23:32.933Z,100694.25
2023-02-19T06:26:38.554Z,100696.62
2023-02-19T06:29:47.844Z,100691.28
2023-02-19T06:33:02.350Z,100692.88
2023-02-19T06:36:10.796Z,100677.09
2023-02-19T06:39:21.818Z,100660.25
2023-02-19T06:42:25.065Z,100665.47
2023-02-19T06:45:32.260Z,100675.31
2023-02-19T06:48:39.536Z,100670.94
2023-02-19T06:51:44.039Z,100673.59
2023-02-19T06:54:54.785Z,100674.50
2023-02-19T06:57:58.828Z,100658.03
2023-02-19T07:01:08.764Z,100671.97
2023-02-19T07:04:21.330Z,100666.78
2023-02-19T07:07:26.416Z,100674.06
2023-02-19T07:10:29.907Z,100681.94
2023-02-19T07:13:41.393Z,100676.06
2023-02-19T07:16:51.209Z,100674.34
2023-02-19T07:19:59.362Z,100668.25
2023-02-19T07:23:14.388Z,100682.34
2023-02-19T07:26:27.505Z,100681.53
2023-02-19T07:29:35.818Z,100686.88
2023-02-19T07:32:46.810Z,100679.97
2023-02-19T07:35:55.808Z,100680.03
2023-02-19T07:39:09.928Z,100674.16
2023-02-19T07:42:20.232Z,100665.88
2023-02-19T07:45:27.464Z,100671.22
2023-02-19T07:48:31.364Z,100669.16
2023-02-19T07:51:40.428Z,100668.97
2023-02-19T07:54:45.746Z,100664.25
2023-02-19T07:57:58.332Z,100664.59
2023-02-19T08:01:44.530Z,100661.69
2023-02-19T08:04:49.330Z,100673.38
2023-02-19T08:07:58.272Z,100677.16
2023-02-19T08:11:23.606Z,100682.50
2023-02-19T08:14:42.247Z,100691.19
2023-02-19T08:17:58.202Z,100695.47
2023-02-19T08:21:18.394Z,100699.66
2023-02-19T08:24:31.292Z,100702.13
2023-02-19T08:27:35.325Z,100708.03
2023-02-19T08:30:55.442Z,100704.41
2023-02-19T08:34:06.922Z,100709.47
2023-02-19T08:37:14.416Z,100697.97
2023-02-19T08:40:22.450Z,100697.09
2023-02-19T08:43:28.687Z,100683.88
2023-02-19T08:46:37.592Z,100689.47
2023-02-19T08:49:56.387Z,100679.19
2023-02-19T08:53:09.513Z,100681.03
2023-02-19T08:56:22.597Z,100676.53
2023-02-19T08:59:29.599Z,100672.22
2023-02-19T09:02:39.371Z,100681.22
2023-02-19T09:05:48.756Z,100683.66
2023-02-19T09:09:07.375Z,100673.38
2023-02-19T09:12:21.538Z,100670.81
2023-02-19T09:15:33.334Z,100681.81
2023-02-19T09:18:38.572Z,100687.16
2023-02-19T09:21:53.192Z,100687.00
2023-02-19T09:24:59.690Z,100690.31
2023-02-19T09:28:13.959Z,100671.16
2023-02-19T09:31:32.288Z,100659.78
2023-02-19T09:34:48.734Z,100663.41
2023-02-19T09:38:11.070Z,100666.00
2023-02-19T09:41:35.842Z,100669.38
2023-02-19T09:44:48.545Z,100664.22
2023-02-19T09:48:06.337Z,100657.37
2023-02-19T09:51:28.220Z,100659.59
2023-02-19T09:54:39.348Z,100658.28
2023-02-19T09:57:47.209Z,100659.81
2023-02-19T10:00:52.689Z,100663.34
2023-02-19T10:04:10.218Z,100655.91
2023-02-19T10:07:17.393Z,100651.25
2023-02-19T10:10:33.332Z,100656.94
2023-02-19T10:13:50.369Z,100647.78
2023-02-19T10:17:05.606Z,100633.94
2023-02-19T10:20:17.338Z,100620.97
2023-02-19T10:23:26.677Z,100623.66
2023-02-19T10:26:39.281Z,100612.28
2023-02-19T10:29:57.244Z,100601.50
2023-02-19T10:33:09.845Z,100610.91
2023-02-19T10:36:35.200Z,100601.56
2023-02-19T10:39:49.958Z,100586.56
2023-02-19T10:43:15.224Z,100582.09
2023-02-19T10:46:22.698Z,100582.59
2023-02-19T10:49:37.800Z,100565.75
2023-02-19T10:53:07.232Z,100572.28
2023-02-19T10:56:27.115Z,100564.25
2023-02-19T10:59:40.175Z,100553.50
2023-02-19T11:02:50.342Z,100558.47
2023-02-19T11:06:10.353Z,100539.56
2023-02-19T11:09:37.491Z,100541.19
2023-02-19T11:12:52.866Z,100530.12
2023-02-19T11:16:05.356Z,100519.00
2023-02-19T11:19:38.311Z,100505.22
2023-02-19T11:22:49.450Z,100514.91
2023-02-19T11:26:04.335Z,100503.44
2023-02-19T11:29:29.457Z,100504.97
2023-02-19T11:32:34.366Z,100501.25
2023-02-19T11:35:40.480Z,100486.53
2023-02-19T11:38:45.075Z,100478.47
2023-02-19T11:42:14.129Z,100476.12
2023-02-19T11:45:33.511Z,100471.56
2023-02-19T11:49:05.855Z,100465.31
2023-02-19T11:52:42.342Z,100464.44
2023-02-19T11:56:23.938Z,100443.31
2023-02-19T11:59:40.745Z,100453.94
2023-02-19T12:03:03.277Z,100442.25
2023-02-19T12:06:39.160Z,100430.03
2023-02-19T12:10:03.642Z,100430.78
2023-02-19T12:13:39.870Z,100439.47
2023-02-19T12:17:22.779Z,100406.06
2023-02-19T12:20:35.403Z,100413.84
2023-02-19T12:23:57.763Z,100406.72
2023-02-19T12:27:37.274Z,100398.78
2023-02-19T12:31:00.299Z,100403.16
2023-02-19T12:34:25.324Z,100400.47
2023-02-19T12:37:53.453Z,100400.38
2023-02-19T12:41:30.305Z,100394.03
2023-02-19T12:44:45.266Z,100386.13
2023-02-19T12:48:14.450Z,100404.47
2023-02-19T12:51:26.658Z,100400.97
2023-02-19T12:54:39.325Z,100415.84
2023-02-19T12:57:43.485Z,100420.22
2023-02-19T13:01:00.017Z,100420.16
2023-02-19T13:04:31.424Z,100416.69
2023-02-19T13:07:49.499Z,100418.50
2023-02-19T13:11:16.621Z,100421.03
2023-02-19T13:14:28.527Z,100417.41
2023-02-19T13:17:46.613Z,100407.75
2023-02-19T13:21:11.407Z,100406.06
2023-02-19T13:24:24.760Z,100414.88
2023-02-19T13:27:43.317Z,100394.75
2023-02-19T13:31:41.462Z,100401.84
2023-02-19T13:35:04.724Z,100390.34
2023-02-19T13:38:18.336Z,100392.03
2023-02-19T13:41:36.604Z,100402.47
2023-02-19T13:44:57.772Z,100371.66
2023-02-19T13:48:17.520Z,100390.97
2023-02-19T13:51:29.614Z,100395.34
2023-02-19T13:54:47.411Z,100414.03
2023-02-19T13:57:51.014Z,100422.28
2023-02-19T14:00:58.121Z,100415.63
2023-02-19T14:04:43.017Z,100428.81
2023-02-19T14:07:55.577Z,100436.38
2023-02-19T14:11:09.924Z,100435.12
2023-02-19T14:14:51.615Z,100439.94
2023-02-19T14:18:03.499Z,100473.66
2023-02-19T14:21:23.117Z,100520.31
2023-02-19T14:24:29.359Z,100540.84
2023-02-19T14:27:41.414Z,100567.91
2023-02-19T14:30:52.611Z,100563.13
2023-02-19T14:34:23.184Z,100565.41
2023-02-19T14:37:29.344Z,100570.53
2023-02-19T14:40:45.270Z,100563.75
2023-02-19T14:44:12.197Z,100580.59
2023-02-19T14:47:21.327Z,100586.37
2023-02-19T14:50:36.333Z,100585.34
2023-02-19T14:53:47.319Z,100586.13
2023-02-19T14:57:01.374Z,100600.28
2023-02-19T15:00:30.910Z,100592.94
2023-02-19T15:03:39.237Z,100593.63
2023-02-19T15:06:48.488Z,100578.25
2023-02-19T15:10:07.303Z,100588.91
2023-02-19T15:13:18.326Z,100583.03
2023-02-19T15:16:30.517Z,100589.94
2023-02-19T15:19:48.059Z,100602.06
2023-02-19T15:22:58.735Z,100619.25
2023-02-19T15:26:03.740Z,100629.38
2023-02-19T15:29:23.189Z,100636.94
2023-02-19T15:32:33.243Z,100625.25
2023-02-19T15:35:40.370Z,100615.34
2023-02-19T15:38:44.826Z,100617.59
2023-02-19T15:42:09.238Z,100613.81
2023-02-19T15:45:29.482Z,100616.31
2023-02-19T15:48:53.216Z,100617.75
2023-02-19T15:52:09.349Z,100610.47
2023-02-19T15:55:43.483Z,100600.81
2023-02-19T15:59:00.932Z,100613.59
2023-02-19T16:02:13.308Z,100608.31
2023-02-19T16:05:32.256Z,100586.00
2023-02-19T16:08:41.282Z,100598.16
2023-02-19T16:11:59.548Z,100607.38
2023-02-19T16:15:14.889Z,100618.41
2023-02-19T16:18:35.236Z,100626.87
2023-02-19T16:21:44.365Z,100641.63
2023-02-19T16:25:05.120Z,100647.72
2023-02-19T16:28:29.676Z,100655.00
2023-02-19T16:31:56.599Z,100662.09
2023-02-19T16:35:06.802Z,100675.41
2023-02-19T16:38:17.067Z,100672.00
2023-02-19T16:41:28.865Z,100677.72
2023-02-19T16:44:41.375Z,100672.34
2023-02-19T16:47:51.245Z,100672.34
2023-02-19T16:51:08.513Z,100677.50
2023-02-19T16:54:13.820Z,100678.25
2023-02-19T16:57:28.296Z,100685.25
2023-02-19T17:00:46.443Z,100686.25
2023-02-19T17:04:11.243Z,100680.34
2023-02-19T17:07:29.366Z,100696.09
2023-02-19T17:10:40.478Z,100702.34
2023-02-19T17:14:00.480Z,100690.19
2023-02-19T17:17:09.333Z,100682.81
2023-02-19T17:20:24.259Z,100695.84
2023-02-19T17:23:28.250Z,100708.81
2023-02-19T17:26:41.317Z,100705.31
2023-02-19T17:29:56.275Z,100716.34
2023-02-19T17:33:10.903Z,100724.97
2023-02-19T17:36:38.194Z,100722.53
2023-02-19T17:39:53.198Z,100723.09
2023-02-19T17:43:01.999Z,100741.34
2023-02-19T17:46:24.461Z,100729.22
2023-02-19T17:49:34.297Z,100742.75
2023-02-19T17:52:45.303Z,100763.78
2023-02-19T17:56:02.173Z,100778.38
2023-02-19T17:59:18.470Z,100790.72
2023-02-19T18:02:22.317Z,100794.13
2023-02-19T18:05:38.220Z,100807.09
2023-02-19T18:08:50.202Z,100819.00
2023-02-19T18:12:02.561Z,100816.28
2023-02-19T18:15:23.468Z,100817.09
2023-02-19T18:18:34.372Z,100786.56
2023-02-19T18:21:45.749Z,100799.63
2023-02-19T18:24:58.621Z,100806.34
2023-02-19T18:28:06.614Z,100812.31
2023-02-19T18:31:12.609Z,100815.47
2023-02-19T18:34:24.192Z,100821.22
2023-02-19T18:37:53.276Z,100830.81
2023-02-19T18:41:02.286Z,100840.31
2023-02-19T18:44:08.422Z,100866.06
2023-02-19T18:47:19.092Z,100871.81
2023-02-19T18:50:30.687Z,100875.53
2023-02-19T18:53:34.857Z,100860.75
2023-02-19T18:57:08.184Z,100873.53
2023-02-19T19:00:24.572Z,100877.03
2023-02-19T19:03:35.546Z,100881.91
2023-02-19T19:06:41.218Z,100894.31
2023-02-19T19:10:06.368Z,100907.25
2023-02-19T19:13:32.205Z,100903.59
2023-02-19T19:16:45.252Z,100914.63
2023-02-19T19:19:49.028Z,100920.31
2023-02-19T19:23:00.602Z,100929.59
2023-02-19T19:26:17.443Z,100926.84
2023-02-19T19:29:31.097Z,100927.50
2023-02-19T19:32:53.918Z,100929.13
2023-02-19T19:36:04.312Z,100910.50
2023-02-19T19:39:20.665Z,100889.88
2023-02-19T19:42:32.806Z,100892.25
2023-02-19T19:45:58.197Z,100877.19
2023-02-19T19:49:21.221Z,100882.38
2023-02-19T19:52:28.572Z,100895.19
2023-02-19T19:55:39.141Z,100905.34
2023-02-19T20:02:11.169Z,100909.19
2023-02-19T20:05:23.193Z,100920.63
2023-02-19T20:08:29.376Z,100937.03
2023-02-19T20:11:51.078Z,100943.59
2023-02-19T20:14:58.185Z,100961.03
2023-02-19T20:18:06.432Z,100974.84
2023-02-19T20:21:30.316Z,100978.00
2023-02-19T20:24:41.621Z,100998.53
2023-02-19T20:27:44.769Z,100992.03
2023-02-19T20:30:50.436Z,101014.34
2023-02-19T20:33:56.231Z,101019.16
2023-02-19T20:37:08.270Z,101024.28
2023-02-19T20:40:19.323Z,101026.31
2023-02-19T20:43:30.339Z,101031.69
2023-02-19T20:47:06.311Z,101033.19
2023-02-19T20:50:17.240Z,101052.56
2023-02-19T20:53:33.720Z,101057.31
2023-02-19T20:56:51.239Z,101070.84
2023-02-19T20:59:56.389Z,101073.09
2023-02-19T21:03:06.528Z,101079.81
2023-02-19T21:06:10.410Z,101090.03
2023-02-19T21:09:14.738Z,101071.97
2023-02-19T21:12:20.265Z,101089.84
2023-02-19T21:15:32.203Z,101089.59
2023-02-19T21:18:38.275Z,101071.09
2023-02-19T21:21:43.459Z,101086.28
2023-02-19T21:24:52.125Z,101084.03
2023-02-19T21:27:57.543Z,101083.50
2023-02-19T21:31:01.707Z,101097.81
2023-02-19T21:34:09.624Z,101094.66
2023-02-19T21:37:15.642Z,101091.00
2023-02-19T21:40:28.179Z,101095.19
2023-02-19T21:43:32.048Z,101093.94
2023-02-19T21:46:36.042Z,101097.97
2023-02-19T21:49:44.531Z,101098.66
2023-02-19T21:52:49.968Z,101090.72
2023-02-19T21:55:58.820Z,101109.66
2023-02-19T21:59:02.889Z,101112.78
2023-02-19T22:02:06.345Z,101121.84
2023-02-19T22:05:10.928Z,101131.78
2023-02-19T22:08:16.026Z,101140.34
2023-02-19T22:11:19.540Z,101145.16
2023-02-19T22:14:23.418Z,101156.72
2023-02-19T22:17:27.479Z,101166.00
2023-02-19T22:20:35.293Z,101169.09
2023-02-19T22:23:38.940Z,101185.94
2023-02-19T22:26:43.541Z,101191.81
2023-02-19T22:29:49.465Z,101212.44
2023-02-19T22:32:52.212Z,101210.25
2023-02-19T22:35:55.405Z,101229.66
2023-02-19T22:39:13.269Z,101235.25
2023-02-19T22:42:20.392Z,101250.94
2023-02-19T22:45:26.418Z,101252.41
2023-02-19T22:48:31.395Z,101260.19
2023-02-19T22:51:35.671Z,101264.16
2023-02-19T22:54:39.023Z,101257.47
2023-02-19T22:57:44.684Z,101264.13
2023-02-19T23:00:48.498Z,101270.31
2023-02-19T23:03:57.617Z,101259.56
2023-02-19T23:07:01.476Z,101252.78
2023-02-19T23:10:05.316Z,101275.06
2023-02-19T23:13:09.989Z,101277.72
2023-02-19T23:16:15.014Z,101275.25
2023-02-19T23:19:19.174Z,101278.03
2023-02-19T23:22:22.751Z,101287.06
2023-02-19T23:25:26.774Z,101284.37
2023-02-19T23:28:29.850Z,101287.75
2023-02-19T23:31:33.375Z,101293.81
2023-02-19T23:34:36.018Z,101310.03
2023-02-19T23:37:39.149Z,101300.94
2023-02-19T23:40:43.330Z,101298.37
2023-02-19T23:43:49.128Z,101300.44
2023-02-19T23:46:53.047Z,101306.12
2023-02-19T23:49:58.514Z,101304.13
2023-02-19T23:53:01.345Z,101311.69
2023-02-19T23:56:06.676Z,101311.00
2023-02-19T23:59:09.791Z,101318.63
